Time;durP1;ratioP1;P1;durP2;ratioP2;P2;SDS_P1;SDS_P2;PMS_P1;PMS_P2;Temp;Humidity;BMP_temperature;BMP_pressure;BME280_temperature;BME280_humidity;BME280_pressure;Samples;Min_cycle;Max_cycle;Signal;HPM_P1;HPM_P2
2021/12/03 00:00:46;;;;;;;10.20;9.20;;;;;;;1.72;100.00;99813.38;5006984;28;20603;-51
2021/12/03 00:03:12;;;;;;;9.13;8.13;;;;;;;1.68;100.00;99816.69;5017567;28;20719;-52
2021/12/03 00:05:38;;;;;;;8.27;7.47;;;;;;;1.63;100.00;99825.94;4998658;28;20570;-53
2021/12/03 00:08:05;;;;;;;7.53;6.80;;;;;;;1.61;100.00;99842.91;5006643;28;20286;-53
2021/12/03 00:10:31;;;;;;;7.63;6.83;;;;;;;1.61;100.00;99846.34;5005253;28;20183;-52
2021/12/03 00:12:58;;;;;;;7.63;6.83;;;;;;;1.61;100.00;99856.53;5050341;28;20683;-53
2021/12/03 00:15:25;;;;;;;7.53;6.83;;;;;;;1.64;100.00;99858.28;4995165;28;20242;-52
2021/12/03 00:17:51;;;;;;;6.73;6.03;;;;;;;1.65;100.00;99862.56;5005567;28;20627;-54
2021/12/03 00:20:18;;;;;;;7.47;6.67;;;;;;;1.65;100.00;99865.09;5005833;28;20266;-49
2021/12/03 00:22:45;;;;;;;8.30;6.60;;;;;;;1.64;100.00;99874.47;5006439;28;20259;-51
2021/12/03 00:25:11;;;;;;;9.47;7.30;;;;;;;1.63;100.00;99867.63;5004872;28;20196;-53
2021/12/03 00:27:37;;;;;;;7.73;7.03;;;;;;;1.59;100.00;99872.66;5006363;28;20237;-53
2021/12/03 00:30:05;;;;;;;8.77;6.90;;;;;;;1.57;100.00;99876.84;5001817;28;20303;-52
2021/12/03 00:32:31;;;;;;;7.57;6.87;;;;;;;1.54;100.00;99882.72;5004541;28;20196;-53
2021/12/03 00:34:56;;;;;;;9.33;8.30;;;;;;;1.50;100.00;99879.25;4995989;28;20250;-53
2021/12/03 00:37:22;;;;;;;18.73;16.77;;;;;;;1.50;100.00;99883.50;4993065;28;20205;-52
2021/12/03 00:39:47;;;;;;;38.40;28.43;;;;;;;1.50;100.00;99891.16;5000727;28;20198;-52
2021/12/03 00:42:16;;;;;;;41.77;29.87;;;;;;;1.49;100.00;99897.94;5014783;28;20199;-52
2021/12/03 00:44:44;;;;;;;38.63;30.67;;;;;;;1.50;100.00;99902.22;5001292;28;20669;-52
2021/12/03 00:47:09;;;;;;;33.30;27.63;;;;;;;1.51;100.00;99910.75;5002512;28;20207;-52
2021/12/03 00:49:35;;;;;;;31.93;26.80;;;;;;;1.50;100.00;99912.41;4992436;28;20289;-52
2021/12/03 00:52:00;;;;;;;20.73;18.57;;;;;;;1.52;100.00;99914.97;5021689;28;20189;-52
2021/12/03 00:54:25;;;;;;;14.13;12.27;;;;;;;1.54;100.00;99915.03;5003903;28;20228;-52
2021/12/03 00:56:51;;;;;;;11.53;10.43;;;;;;;1.52;100.00;99914.97;5000527;28;20207;-52
2021/12/03 00:59:16;;;;;;;9.60;8.60;;;;;;;1.50;100.00;99927.72;5005503;28;20241;-52
2021/12/03 01:01:43;;;;;;;9.47;8.53;;;;;;;1.50;100.00;99920.06;5006388;28;20279;-53
2021/12/03 01:04:08;;;;;;;9.73;8.47;;;;;;;1.50;100.00;99919.22;4996887;28;20200;-53
2021/12/03 01:06:34;;;;;;;10.43;8.43;;;;;;;1.48;100.00;99923.41;4998420;28;20262;-52
2021/12/03 01:08:59;;;;;;;9.47;8.47;;;;;;;1.46;100.00;99920.81;4998833;28;20706;-53
2021/12/03 01:11:25;;;;;;;9.80;8.73;;;;;;;1.44;100.00;99927.56;4993563;28;20460;-53
2021/12/03 01:13:50;;;;;;;9.53;8.57;;;;;;;1.42;100.00;99931.78;4998885;28;20393;-52
2021/12/03 01:16:16;;;;;;;9.87;7.87;;;;;;;1.40;100.00;99935.13;5007118;28;20257;-54
2021/12/03 01:18:44;;;;;;;10.07;8.13;;;;;;;1.38;100.00;99937.66;5005288;28;20219;-52
2021/12/03 01:21:10;;;;;;;10.53;9.43;;;;;;;1.35;100.00;99940.13;5000890;28;20303;-52
2021/12/03 01:23:36;;;;;;;8.63;7.73;;;;;;;1.35;100.00;99945.22;5004522;28;20337;-52
2021/12/03 01:26:02;;;;;;;9.07;8.17;;;;;;;1.32;100.00;99953.66;5013868;28;20196;-54
2021/12/03 01:28:27;;;;;;;9.17;8.27;;;;;;;1.32;100.00;99945.13;5028912;28;20656;-51
2021/12/03 01:30:57;;;;;;;9.13;7.97;;;;;;;1.31;100.00;99944.28;5008484;28;20700;-51
2021/12/03 01:33:23;;;;;;;9.07;8.17;;;;;;;1.30;100.00;99949.34;5006940;28;20184;-51
2021/12/03 01:35:48;;;;;;;10.07;8.87;;;;;;;1.27;100.00;99941.66;4996848;28;20184;-52
2021/12/03 01:38:14;;;;;;;8.83;7.93;;;;;;;1.24;100.00;99946.66;5014951;28;20379;-52
2021/12/03 01:40:40;;;;;;;10.37;8.43;;;;;;;1.23;100.00;99947.50;5009772;28;20562;-53
2021/12/03 01:43:08;;;;;;;10.67;8.70;;;;;;;1.18;100.00;99942.28;5016713;28;20183;-52
2021/12/03 01:45:36;;;;;;;9.80;8.80;;;;;;;1.14;100.00;99950.69;5020081;28;20188;-51
2021/12/03 01:48:02;;;;;;;11.80;8.73;;;;;;;1.06;100.00;99955.59;5015948;28;20240;-52
2021/12/03 01:50:33;;;;;;;10.33;9.00;;;;;;;1.02;100.00;99961.44;5007126;27;20197;-52
2021/12/03 01:52:59;;;;;;;10.17;9.10;;;;;;;0.98;100.00;99959.66;5016713;28;20520;-52
2021/12/03 01:55:25;;;;;;;9.70;8.73;;;;;;;0.96;100.00;99962.16;5003324;28;20192;-51
2021/12/03 01:57:50;;;;;;;10.37;9.27;;;;;;;0.90;100.00;99969.66;5003240;28;20208;-52
2021/12/03 02:00:30;;;;;;;10.43;9.33;;;;;;;0.84;100.00;99967.78;5015401;28;20204;-51
2021/12/03 02:02:56;;;;;;;10.77;9.67;;;;;;;0.79;100.00;99958.31;5011391;28;20253;-52
2021/12/03 02:05:22;;;;;;;10.40;9.40;;;;;;;0.69;100.00;99957.19;5019180;28;20204;-54
2021/12/03 02:07:48;;;;;;;11.00;9.50;;;;;;;0.57;100.00;99953.53;5002809;28;20229;-51
2021/12/03 02:10:15;;;;;;;11.10;9.30;;;;;;;0.46;100.00;99957.47;5004638;28;20256;-50
2021/12/03 02:12:40;;;;;;;11.27;9.90;;;;;;;0.35;100.00;99958.88;5011988;28;20248;-52
2021/12/03 02:15:07;;;;;;;10.17;9.07;;;;;;;0.25;100.00;99957.75;5010456;28;20608;-52
2021/12/03 02:17:32;;;;;;;11.87;9.60;;;;;;;0.15;100.00;99960.03;5007039;28;20568;-54
2021/12/03 02:19:58;;;;;;;10.83;9.73;;;;;;;0.08;100.00;99960.69;5009765;28;20198;-52
2021/12/03 02:22:23;;;;;;;11.07;9.47;;;;;;;0.03;100.00;99963.94;5020697;28;20189;-53
2021/12/03 02:24:49;;;;;;;11.63;9.50;;;;;;;-0.05;100.00;99971.34;5007626;28;20294;-53
2021/12/03 02:27:14;;;;;;;12.43;10.77;;;;;;;-0.13;100.00;99963.47;5016932;28;20554;-52
2021/12/03 02:29:40;;;;;;;12.33;9.93;;;;;;;-0.19;100.00;99979.44;5000613;28;20267;-54
2021/12/03 02:32:06;;;;;;;11.57;10.23;;;;;;;-0.26;100.00;99974.97;5007980;28;20198;-50
2021/12/03 02:34:31;;;;;;;10.07;9.07;;;;;;;-0.31;100.00;99981.63;5013064;28;20637;-52
2021/12/03 02:36:57;;;;;;;12.87;10.10;;;;;;;-0.37;100.00;99977.19;4990875;28;20219;-51
2021/12/03 02:39:22;;;;;;;11.90;10.10;;;;;;;-0.38;100.00;99974.59;4996785;28;20284;-53
2021/12/03 02:41:47;;;;;;;13.17;11.13;;;;;;;-0.41;100.00;99979.59;5012239;28;20645;-53
2021/12/03 02:44:13;;;;;;;14.37;11.43;;;;;;;-0.43;100.00;99982.09;5001745;28;20221;-52
2021/12/03 02:46:38;;;;;;;13.43;11.47;;;;;;;-0.45;100.00;99986.28;4995614;28;20276;-52
2021/12/03 02:49:05;;;;;;;14.17;11.50;;;;;;;-0.52;100.00;99990.31;4997907;28;20230;-53
2021/12/03 02:51:31;;;;;;;12.83;10.90;;;;;;;-0.54;100.00;99988.53;5034543;28;20278;-53
2021/12/03 02:53:57;;;;;;;13.47;12.03;;;;;;;-0.58;100.00;99992.63;5011166;28;20273;-52
2021/12/03 02:56:23;;;;;;;13.00;11.67;;;;;;;-0.63;100.00;99997.59;5001977;28;20216;-52
2021/12/03 02:58:48;;;;;;;14.67;11.40;;;;;;;-0.65;100.00;100011.06;5013429;28;20193;-53
2021/12/03 03:01:14;;;;;;;12.60;11.30;;;;;;;-0.66;100.00;100012.72;5002149;28;20613;-54
2021/12/03 03:03:39;;;;;;;17.17;13.63;;;;;;;-0.66;100.00;100019.50;5001672;28;20685;-54
2021/12/03 03:06:07;;;;;;;15.23;12.63;;;;;;;-0.69;100.00;100027.91;5009854;28;20472;-52
2021/12/03 03:08:34;;;;;;;13.33;11.63;;;;;;;-0.73;100.00;100020.09;5013395;28;20211;-52
2021/12/03 03:11:02;;;;;;;13.03;11.13;;;;;;;-0.77;100.00;100026.78;5014391;28;20626;-52
2021/12/03 03:13:28;;;;;;;13.10;11.20;;;;;;;-0.80;100.00;100029.19;5017134;28;20593;-52
2021/12/03 03:15:53;;;;;;;14.60;12.43;;;;;;;-0.85;100.00;100026.53;5004576;28;20222;-53
2021/12/03 03:18:24;;;;;;;14.83;12.63;;;;;;;-0.87;100.00;100024.75;5001939;28;20528;-51
2021/12/03 03:20:52;;;;;;;15.10;12.33;;;;;;;-0.87;100.00;100024.75;5003310;28;20626;-54
2021/12/03 03:23:18;;;;;;;16.67;13.97;;;;;;;-0.85;100.00;100026.53;5006556;28;20222;-51
2021/12/03 03:25:45;;;;;;;17.40;13.17;;;;;;;-0.83;100.00;100032.53;5000648;28;20670;-52
2021/12/03 03:28:12;;;;;;;15.90;13.57;;;;;;;-0.80;100.00;100035.16;5015063;28;20219;-52
2021/12/03 03:30:40;;;;;;;16.03;13.57;;;;;;;-0.78;100.00;100040.28;5004752;28;20219;-54
2021/12/03 03:33:06;;;;;;;16.67;13.77;;;;;;;-0.73;100.00;100037.88;5016077;28;20326;-51
2021/12/03 03:35:32;;;;;;;17.27;13.47;;;;;;;-0.74;100.00;100042.13;5012437;28;20204;-52
2021/12/03 03:37:58;;;;;;;17.60;13.70;;;;;;;-0.79;100.00;100041.97;5003039;28;20255;-54
2021/12/03 03:40:23;;;;;;;16.17;13.47;;;;;;;-0.81;100.00;100041.06;5013293;28;20219;-53
2021/12/03 03:42:49;;;;;;;16.87;13.77;;;;;;;-0.83;100.00;100044.38;5002065;28;20792;-54
2021/12/03 03:45:19;;;;;;;16.23;13.93;;;;;;;-0.88;100.00;100048.44;5007456;28;20694;-51
2021/12/03 03:47:45;;;;;;;17.60;13.43;;;;;;;-0.90;100.00;100050.91;4994004;28;20651;-53
2021/12/03 03:50:12;;;;;;;15.80;13.10;;;;;;;-0.93;100.00;100054.22;5001764;28;20195;-52
2021/12/03 03:52:39;;;;;;;16.40;13.63;;;;;;;-0.95;100.00;100049.91;5010391;28;20643;-54
2021/12/03 03:55:07;;;;;;;17.53;13.73;;;;;;;-0.98;100.00;100052.31;5000000;28;20196;-51
2021/12/03 03:57:33;;;;;;;16.13;14.07;;;;;;;-1.01;100.00;100055.63;4999668;28;20224;-53
2021/12/03 03:59:58;;;;;;;16.67;13.33;;;;;;;-1.03;100.00;100058.91;5016562;28;20193;-53
2021/12/03 04:02:24;;;;;;;18.50;14.53;;;;;;;-1.06;100.00;100057.16;5008309;28;20287;-53
2021/12/03 04:04:49;;;;;;;17.83;14.20;;;;;;;-1.05;100.00;100069.03;5020178;28;20196;-53
2021/12/03 04:07:15;;;;;;;16.80;13.90;;;;;;;-1.09;100.00;100062.13;4996648;28;20215;-52
2021/12/03 04:09:40;;;;;;;17.27;14.13;;;;;;;-1.11;100.00;100071.34;5011297;28;20217;-52
2021/12/03 04:12:07;;;;;;;18.10;14.33;;;;;;;-1.13;100.00;100071.31;4998261;28;20192;-52
2021/12/03 04:14:32;;;;;;;17.87;14.63;;;;;;;-1.17;100.00;100064.38;5007363;28;20453;-55
2021/12/03 04:16:57;;;;;;;16.47;14.20;;;;;;;-1.20;100.00;100076.13;4998832;28;20214;-51
2021/12/03 04:19:23;;;;;;;15.07;12.53;;;;;;;-1.24;100.00;100070.94;5003304;28;20653;-55
2021/12/03 04:21:48;;;;;;;18.07;13.73;;;;;;;-1.28;100.00;100078.38;4995070;28;20196;-52
2021/12/03 04:24:14;;;;;;;15.20;13.00;;;;;;;-1.32;100.00;100079.97;5005851;28;20573;-54
2021/12/03 04:26:39;;;;;;;16.43;14.30;;;;;;;-1.35;100.00;100079.84;5004442;28;20757;-51
2021/12/03 04:29:05;;;;;;;16.93;13.90;;;;;;;-1.39;100.00;100078.88;4995515;28;20242;-54
2021/12/03 04:31:30;;;;;;;17.57;13.67;;;;;;;-1.39;100.00;100078.00;4990665;28;20618;-52
2021/12/03 04:33:56;;;;;;;18.43;14.27;;;;;;;-1.41;100.00;100075.41;5009387;28;20196;-52
2021/12/03 04:36:21;;;;;;;16.30;14.07;;;;;;;-1.43;100.00;100071.94;4995938;28;20515;-52
2021/12/03 04:38:47;;;;;;;16.00;13.20;;;;;;;-1.44;100.00;100074.44;5004175;28;20189;-52
2021/12/03 04:41:13;;;;;;;16.93;13.53;;;;;;;-1.46;100.00;100081.13;5009625;28;20679;-53
2021/12/03 04:43:39;;;;;;;18.40;14.57;;;;;;;-1.48;100.00;100083.59;5005108;28;20254;-53
2021/12/03 04:46:04;;;;;;;16.30;13.50;;;;;;;-1.49;100.00;100081.88;4997572;28;20197;-52
2021/12/03 04:48:30;;;;;;;18.83;14.87;;;;;;;-1.49;100.00;100084.41;4996837;28;20571;-52
2021/12/03 04:50:55;;;;;;;16.97;13.80;;;;;;;-1.47;100.00;100097.16;4993917;28;20218;-53
2021/12/03 04:53:21;;;;;;;16.67;13.17;;;;;;;-1.48;100.00;100106.44;5006532;28;20185;-51
2021/12/03 04:55:48;;;;;;;17.43;14.07;;;;;;;-1.50;100.00;100107.22;4994946;28;20195;-53
2021/12/03 04:58:14;;;;;;;16.10;13.40;;;;;;;-1.53;100.00;100113.03;4995631;28;20579;-53
2021/12/03 05:00:52;;;;;;;17.90;14.50;;;;;;;-1.54;100.00;100116.38;4998671;28;20182;-52
2021/12/03 05:03:18;;;;;;;17.27;14.67;;;;;;;-1.56;100.00;100123.94;4998161;28;20667;-52
2021/12/03 05:05:55;;;;;;;16.67;14.00;;;;;;;-1.56;100.00;100123.94;4994326;28;20201;-53
2021/12/03 05:08:21;;;;;;;17.17;13.77;;;;;;;-1.56;100.00;100123.94;4996860;28;20276;-53
2021/12/03 05:10:47;;;;;;;16.53;14.03;;;;;;;-1.56;100.00;100113.78;4994959;28;20667;-53
2021/12/03 05:13:28;;;;;;;16.73;14.40;;;;;;;-1.57;100.00;100118.81;4996475;28;20606;-53
2021/12/03 05:15:54;;;;;;;16.80;14.80;;;;;;;-1.59;100.00;100125.50;4997663;28;20242;-53
2021/12/03 05:18:22;;;;;;;17.63;14.63;;;;;;;-1.58;100.00;100124.69;5002459;28;20184;-52
2021/12/03 05:20:50;;;;;;;17.07;14.30;;;;;;;-1.59;100.00;100122.94;5000127;28;20263;-52
2021/12/03 05:23:16;;;;;;;17.27;14.30;;;;;;;-1.62;100.00;100116.09;4999952;28;20244;-53
2021/12/03 05:25:42;;;;;;;17.40;14.47;;;;;;;-1.65;100.00;100123.59;5009372;28;20339;-52
2021/12/03 05:28:09;;;;;;;16.67;13.40;;;;;;;-1.67;100.00;100137.03;5020095;28;20711;-53
2021/12/03 05:30:36;;;;;;;14.43;12.73;;;;;;;-1.69;100.00;100136.97;5015326;28;20254;-52
2021/12/03 05:33:03;;;;;;;14.87;12.83;;;;;;;-1.73;100.00;100155.41;4993621;28;20205;-53
2021/12/03 05:35:28;;;;;;;16.37;13.60;;;;;;;-1.78;100.00;100154.38;4998440;28;20193;-53
2021/12/03 05:37:54;;;;;;;16.23;13.40;;;;;;;-1.80;100.00;100156.84;4993904;28;20211;-53
2021/12/03 05:40:20;;;;;;;17.10;13.97;;;;;;;-1.81;100.00;100161.88;5005168;28;20192;-52
2021/12/03 05:42:46;;;;;;;14.70;13.10;;;;;;;-1.83;100.00;100161.81;5012264;28;20641;-53
2021/12/03 05:45:16;;;;;;;16.87;15.03;;;;;;;-1.82;100.00;100155.06;5008521;28;20180;-53
2021/12/03 05:47:42;;;;;;;16.63;13.70;;;;;;;-1.83;100.00;100149.13;5001382;28;20216;-54
2021/12/03 05:50:10;;;;;;;15.60;13.63;;;;;;;-1.84;100.00;100150.78;5003393;28;20197;-51
2021/12/03 05:52:36;;;;;;;16.43;13.97;;;;;;;-1.85;100.00;100154.13;4994783;28;20192;-53
2021/12/03 05:55:02;;;;;;;15.33;13.20;;;;;;;-1.87;100.00;100162.50;5003262;28;20251;-51
2021/12/03 05:57:28;;;;;;;15.47;13.07;;;;;;;-1.88;100.00;100154.00;5021807;28;20217;-52
2021/12/03 05:59:53;;;;;;;16.83;13.73;;;;;;;-1.88;100.00;100158.22;5009192;28;20217;-52
2021/12/03 06:02:20;;;;;;;16.37;13.50;;;;;;;-1.88;100.00;100155.69;5003657;28;20234;-52
2021/12/03 06:04:46;;;;;;;17.53;14.03;;;;;;;-1.85;100.00;100161.75;4993768;28;20188;-51
2021/12/03 06:07:12;;;;;;;16.50;14.13;;;;;;;-1.80;100.00;100171.22;4998383;28;20277;-52
2021/12/03 06:09:37;;;;;;;15.50;13.73;;;;;;;-1.79;100.00;100165.31;4995776;28;20272;-52
2021/12/03 06:12:03;;;;;;;18.10;14.50;;;;;;;-1.81;100.00;100169.47;4997178;28;20198;-52
2021/12/03 06:14:29;;;;;;;15.97;14.20;;;;;;;-1.80;100.00;100166.13;5000397;28;20193;-52
2021/12/03 06:16:56;;;;;;;16.23;13.53;;;;;;;-1.80;100.00;100168.66;5001333;28;20292;-52
2021/12/03 06:19:22;;;;;;;16.00;13.53;;;;;;;-1.77;100.00;100162.03;4993774;28;20185;-52
2021/12/03 06:21:48;;;;;;;15.43;13.37;;;;;;;-1.72;100.00;100165.63;5096885;27;20587;-54
2021/12/03 06:24:13;;;;;;;16.27;13.63;;;;;;;-1.68;100.00;100166.59;5013326;28;20193;-52
2021/12/03 06:26:39;;;;;;;14.60;13.00;;;;;;;-1.63;100.00;100164.25;4997006;28;20217;-53
2021/12/03 06:29:04;;;;;;;19.03;13.63;;;;;;;-1.59;100.00;100159.34;4997696;28;20692;-53
2021/12/03 06:31:30;;;;;;;15.70;12.27;;;;;;;-1.55;100.00;100165.41;4991448;28;20190;-51
2021/12/03 06:33:55;;;;;;;15.50;13.23;;;;;;;-1.51;100.00;100163.84;4996114;28;20193;-54
2021/12/03 06:36:20;;;;;;;13.73;11.93;;;;;;;-1.45;100.00;100167.47;4994626;28;20237;-52
2021/12/03 06:38:46;;;;;;;13.50;12.20;;;;;;;-1.36;100.00;100169.50;4999362;28;20268;-52
2021/12/03 06:41:11;;;;;;;16.93;12.50;;;;;;;-1.25;100.00;100172.44;5015836;28;20196;-52
2021/12/03 06:43:37;;;;;;;15.07;12.20;;;;;;;-1.15;100.00;100181.28;5004860;28;20216;-52
2021/12/03 06:46:02;;;;;;;13.90;12.00;;;;;;;-1.01;100.00;100179.22;5004568;28;20200;-53
2021/12/03 06:48:27;;;;;;;14.37;12.00;;;;;;;-0.90;100.00;100184.69;5006457;28;20267;-52
2021/12/03 06:50:53;;;;;;;14.33;11.97;;;;;;;-0.80;100.00;100186.75;5036055;28;20612;-53
2021/12/03 06:53:23;;;;;;;12.50;10.47;;;;;;;-0.70;100.00;100196.44;5003418;28;20193;-53
2021/12/03 06:55:52;;;;;;;14.67;11.40;;;;;;;-0.59;100.00;100198.50;5009277;28;20195;-53
2021/12/03 06:58:19;;;;;;;12.70;11.00;;;;;;;-0.51;100.00;100199.59;5011274;28;20227;-53
2021/12/03 07:00:47;;;;;;;13.20;11.00;;;;;;;-0.44;100.00;100203.22;4994875;28;20194;-53
2021/12/03 07:03:13;;;;;;;11.67;10.43;;;;;;;-0.37;100.00;100211.13;4996965;28;20678;-52
2021/12/03 07:05:38;;;;;;;11.97;10.43;;;;;;;-0.28;100.00;100209.72;4995123;28;20218;-53
2021/12/03 07:08:04;;;;;;;12.10;9.80;;;;;;;-0.21;100.00;100214.19;5012798;28;20232;-53
2021/12/03 07:10:30;;;;;;;12.00;9.83;;;;;;;-0.14;100.00;100216.13;4993968;28;20208;-52
2021/12/03 07:12:55;;;;;;;10.90;9.33;;;;;;;-0.09;100.00;100221.34;4987446;28;20223;-51
2021/12/03 07:15:21;;;;;;;11.07;9.50;;;;;;;-0.02;100.00;100221.63;5002488;28;20190;-52
2021/12/03 07:17:50;;;;;;;10.80;8.87;;;;;;;0.04;100.00;100215.84;5005123;28;20757;-52
2021/12/03 07:20:16;;;;;;;11.33;9.50;;;;;;;0.10;100.00;100223.72;5001180;28;20189;-52
2021/12/03 07:22:41;;;;;;;9.67;8.60;;;;;;;0.15;100.00;100211.97;5000478;28;20182;-52
2021/12/03 07:25:07;;;;;;;9.60;8.60;;;;;;;0.22;100.00;100218.16;4987521;28;20643;-50
2021/12/03 07:27:33;;;;;;;8.97;8.07;;;;;;;0.25;100.00;100225.88;4987012;28;20225;-52
2021/12/03 07:29:58;;;;;;;34.27;22.67;;;;;;;0.27;100.00;100215.75;5005286;28;20239;-51
2021/12/03 07:32:24;;;;;;;42.23;29.03;;;;;;;0.32;100.00;100221.81;5006869;28;20180;-52
2021/12/03 07:34:51;;;;;;;26.13;17.17;;;;;;;0.35;100.00;100223.63;4999783;28;20251;-52
2021/12/03 07:37:16;;;;;;;20.37;14.40;;;;;;;0.39;100.00;100228.84;5002911;28;20257;-52
2021/12/03 07:39:44;;;;;;;14.57;10.00;;;;;;;0.44;100.00;100226.44;5030775;27;20192;-53
2021/12/03 07:42:09;;;;;;;9.53;7.80;;;;;;;0.51;100.00;100235.16;5013564;28;20192;-52
2021/12/03 07:44:35;;;;;;;8.03;6.90;;;;;;;0.56;100.00;100226.81;5005527;28;20240;-52
2021/12/03 07:47:00;;;;;;;8.10;6.53;;;;;;;0.60;100.00;100223.56;5006279;28;20215;-52
2021/12/03 07:49:26;;;;;;;6.90;6.17;;;;;;;0.67;100.00;100227.16;4994364;28;20599;-53
2021/12/03 07:51:53;;;;;;;7.17;5.83;;;;;;;0.72;100.00;100215.44;5006329;28;20919;-52
2021/12/03 07:54:18;;;;;;;6.73;5.90;;;;;;;0.76;100.00;100217.22;4996941;28;20184;-52
2021/12/03 07:56:45;;;;;;;6.93;6.00;;;;;;;0.82;100.00;100223.34;5010391;28;20651;-51
2021/12/03 07:59:11;;;;;;;8.37;6.23;;;;;;;0.86;100.00;100223.47;4993372;28;20181;-52
2021/12/03 08:01:36;;;;;;;8.13;6.13;;;;;;;0.92;100.00;100222.78;4988871;28;20570;-51
2021/12/03 08:04:02;;;;;;;7.13;6.23;;;;;;;0.91;100.00;100223.59;4997669;28;20208;-52
2021/12/03 08:06:27;;;;;;;8.53;6.97;;;;;;;0.89;100.00;100223.56;5000990;28;20216;-51
2021/12/03 08:08:53;;;;;;;8.40;6.53;;;;;;;0.92;100.00;100232.97;4994871;28;20270;-53
2021/12/03 08:11:18;;;;;;;9.37;6.77;;;;;;;0.93;100.00;100239.81;4996171;28;20184;-55
2021/12/03 08:13:45;;;;;;;7.67;6.87;;;;;;;1.00;100.00;100240.84;4990385;28;20213;-53
2021/12/03 08:16:10;;;;;;;8.23;7.10;;;;;;;1.11;100.00;100236.06;4995932;28;20354;-53
2021/12/03 08:18:35;;;;;;;8.77;6.90;;;;;;;1.18;100.00;100230.34;4999997;28;20560;-53
2021/12/03 08:21:03;;;;;;;8.03;7.23;;;;;;;1.28;100.00;100223.81;5012745;28;20245;-53
2021/12/03 08:23:28;;;;;;;9.20;7.10;;;;;;;1.39;100.00;100221.53;5009981;28;20207;-52
2021/12/03 08:25:54;;;;;;;8.57;7.57;;;;;;;1.48;100.00;100221.81;4997930;28;20188;-52
2021/12/03 08:28:19;;;;;;;8.40;7.60;;;;;;;1.54;100.00;100223.66;4998751;28;20500;-52
2021/12/03 08:30:44;;;;;;;7.70;7.00;;;;;;;1.63;100.00;100229.88;4996620;28;20193;-54
2021/12/03 08:33:10;;;;;;;9.03;7.93;;;;;;;1.73;100.00;100227.53;5006899;28;20246;-52
2021/12/03 08:35:35;;;;;;;9.40;8.43;;;;;;;1.83;100.00;100234.59;5005569;28;20458;-52
2021/12/03 08:38:01;;;;;;;8.40;7.50;;;;;;;1.93;100.00;100235.69;5025075;28;20268;-51
2021/12/03 08:40:26;;;;;;;8.83;7.93;;;;;;;2.01;100.00;100229.13;5003412;28;20189;-53
2021/12/03 08:42:52;;;;;;;8.60;7.80;;;;;;;2.08;100.00;100228.44;4990156;28;20224;-52
2021/12/03 08:45:20;;;;;;;8.27;7.47;;;;;;;2.19;100.00;100233.81;4998784;28;20257;-51
2021/12/03 08:47:49;;;;;;;7.73;6.77;;;;;;;2.28;100.00;100236.56;4996251;28;20581;-52
2021/12/03 08:50:18;;;;;;;10.30;7.23;;;;;;;2.38;100.00;100236.81;4995783;28;20597;-52
2021/12/03 08:55:28;;;;;;;7.27;6.47;;;;;;;2.49;100.00;100239.63;5007721;28;20307;-52
2021/12/03 08:57:54;;;;;;;7.23;6.30;;;;;;;2.48;100.00;100245.56;5000203;28;20291;-52
2021/12/03 09:00:19;;;;;;;8.73;6.50;;;;;;;2.42;100.00;100241.16;4993445;28;20199;-51
2021/12/03 09:02:45;;;;;;;6.97;6.10;;;;;;;2.34;100.00;100241.00;4992563;28;20203;-51
2021/12/03 09:05:12;;;;;;;6.67;6.07;;;;;;;2.31;100.00;100240.91;4996420;28;20196;-52
2021/12/03 09:07:38;;;;;;;7.13;6.20;;;;;;;2.32;100.00;100246.88;4997935;28;20240;-52
2021/12/03 09:10:05;;;;;;;8.53;6.77;;;;;;;2.32;100.00;100247.75;5000347;28;20557;-51
2021/12/03 09:12:30;;;;;;;8.50;6.30;;;;;;;2.38;100.00;100234.25;4999810;28;20193;-52
2021/12/03 09:14:59;;;;;;;7.73;6.33;;;;;;;2.44;100.00;100236.94;4993701;28;20185;-51
2021/12/03 09:17:44;;;;;;;6.27;5.50;;;;;;;2.53;100.00;100252.50;4994712;28;20627;-53
2021/12/03 09:22:49;;;;;;;6.93;5.93;;;;;;;2.94;100.00;100244.03;5008745;28;20196;-52
2021/12/03 09:25:20;;;;;;;6.70;6.10;;;;;;;3.19;100.00;100241.97;4991219;28;20191;-51
2021/12/03 09:27:45;;;;;;;7.63;6.03;;;;;;;3.43;100.00;100238.16;5012403;28;20263;-52
2021/12/03 09:30:14;;;;;;;6.43;5.80;;;;;;;3.62;100.00;100240.25;5002950;28;20196;-51
2021/12/03 09:32:42;;;;;;;6.33;5.70;;;;;;;3.76;100.00;100232.84;5000287;28;20196;-52
2021/12/03 09:35:09;;;;;;;5.80;5.23;;;;;;;3.86;100.00;100227.88;4998569;28;20197;-50
2021/12/03 09:37:35;;;;;;;5.50;4.60;;;;;;;3.91;100.00;100226.25;5006781;28;20238;-53
2021/12/03 09:40:05;;;;;;;5.67;5.13;;;;;;;3.89;100.00;100222.81;4992344;28;20686;-51
2021/12/03 09:42:34;;;;;;;6.33;5.33;;;;;;;3.92;100.00;100220.31;4998503;28;20183;-52
2021/12/03 09:45:00;;;;;;;6.10;5.50;;;;;;;3.95;100.00;100221.22;4997991;28;20197;-52
2021/12/03 09:47:25;;;;;;;5.53;4.80;;;;;;;4.05;100.00;100217.13;4998465;28;20717;-51
2021/12/03 09:49:55;;;;;;;6.53;5.07;;;;;;;4.08;100.00;100219.69;4996239;28;20282;-53
2021/12/03 09:52:37;;;;;;;7.80;5.03;;;;;;;4.11;100.00;100217.19;4992604;28;20196;-51
2021/12/03 09:55:11;;;;;;;6.50;5.30;;;;;;;4.09;100.00;100218.03;5007031;28;20603;-51
2021/12/03 09:57:45;;;;;;;5.87;4.80;;;;;;;3.98;100.00;100222.94;5033716;28;20251;-51
2021/12/03 10:00:38;;;;;;;6.60;6.00;;;;;;;3.79;100.00;100221.78;5017551;28;20282;-52
2021/12/03 10:14:06;;;;;;;6.37;5.63;;;;;;;3.34;100.00;100211.59;5013132;28;20717;-52
2021/12/03 10:16:52;;;;;;;5.50;5.00;;;;;;;3.36;100.00;100206.50;4999794;28;20838;-53
2021/12/03 10:19:27;;;;;;;6.27;5.30;;;;;;;3.44;100.00;100194.72;4997159;28;20181;-51
2021/12/03 10:33:14;;;;;;;4.03;3.70;;;;;;;4.04;100.00;100176.09;4957333;28;20194;-53
2021/12/03 10:36:19;;;;;;;4.70;3.83;;;;;;;4.18;98.87;100174.59;4957105;28;20198;-53
2021/12/03 10:41:12;;;;;;;4.43;4.03;;;;;;;4.60;97.60;100164.97;4988805;28;20232;-54
2021/12/03 10:51:48;;;;;;;4.60;4.20;;;;;;;4.85;97.48;100155.00;5010666;28;20192;-53
2021/12/03 10:55:10;;;;;;;5.00;4.50;;;;;;;5.03;97.33;100159.53;5006098;28;20298;-54
2021/12/03 10:57:58;;;;;;;4.37;3.93;;;;;;;5.24;96.93;100164.03;5001066;28;20218;-52
2021/12/03 12:05:09;;;;;;;4.90;4.50;;;;;;;5.24;92.75;100087.06;4992129;28;20220;-52
2021/12/03 12:58:17;;;;;;;6.57;4.90;;;;;;;4.49;95.85;100036.69;4993404;28;20714;-52
2021/12/03 13:06:25;;;;;;;6.40;5.03;;;;;;;4.54;96.18;100049.53;4995341;28;20604;-51
2021/12/03 14:22:02;;;;;;;5.17;3.57;;;;;;;4.41;91.98;99975.09;4994942;28;20193;-54
2021/12/03 14:56:02;;;;;;;4.87;3.60;;;;;;;3.76;94.06;99924.81;4999680;28;20197;-53
2021/12/03 14:58:47;;;;;;;4.77;3.80;;;;;;;3.72;94.53;99928.16;5006851;28;20202;-52
2021/12/03 15:06:26;;;;;;;5.57;4.23;;;;;;;3.60;95.06;99934.00;5008008;28;20189;-54
2021/12/03 15:08:57;;;;;;;;;;;;;;;;;;;;;
2021/12/03 15:25:03;;;;;;;3.93;3.53;;;;;;;3.24;96.40;99924.94;4993911;28;20662;-54
2021/12/03 15:36:01;;;;;;;4.17;3.30;;;;;;;3.11;96.94;99901.75;5037012;28;20205;-54
2021/12/03 15:54:48;;;;;;;4.07;3.40;;;;;;;3.00;97.17;99890.50;5001140;28;20313;-52
2021/12/03 16:10:30;;;;;;;;;;;;;;;;;;;;;
2021/12/03 16:20:57;;;;;;;4.07;3.67;;;;;;;2.99;96.15;99864.06;4995975;28;20196;-54
2021/12/03 16:45:19;;;;;;;8.00;6.30;;;;;;;3.02;95.09;99825.75;5011974;28;20633;-52
2021/12/03 16:52:51;;;;;;;23.00;15.23;;;;;;;2.95;95.78;99818.81;4993382;28;20377;-52
2021/12/03 16:55:18;;;;;;;21.90;12.40;;;;;;;2.96;94.78;99822.25;4997995;28;20191;-52
2021/12/03 16:57:45;;;;;;;19.20;11.67;;;;;;;2.93;95.10;99809.44;4993093;28;20224;-52
2021/12/03 17:00:19;;;;;;;19.93;12.23;;;;;;;2.92;95.23;99812.81;4992809;28;20201;-53
2021/12/03 17:02:52;;;;;;;13.07;9.17;;;;;;;2.88;95.49;99801.69;5004652;28;20694;-54
2021/12/03 17:05:37;;;;;;;10.00;9.00;;;;;;;2.90;94.84;99808.53;4992581;28;20783;-55
2021/12/03 17:08:27;;;;;;;9.60;8.03;;;;;;;2.87;94.61;99803.38;4995751;28;20262;-52
2021/12/03 17:16:36;;;;;;;6.00;5.23;;;;;;;2.90;95.34;99789.81;5089428;27;20590;-54
2021/12/03 17:28:06;;;;;;;5.40;3.83;;;;;;;2.98;95.05;99762.63;5007558;28;20214;-54
2021/12/03 17:48:43;;;;;;;4.57;3.57;;;;;;;3.03;94.57;99742.25;4999114;28;20213;-54